Time;durP1;ratioP1;P1;durP2;ratioP2;P2;SDS_P1;SDS_P2;PMS_P1;PMS_P2;Temp;Humidity;BMP_temperature;BMP_pressure;BME280_temperature;BME280_humidity;BME280_pressure;Samples;Min_cycle;Max_cycle;Signal;HPM_P1;HPM_P2
2023/01/04 00:01:22;;;;;;;13.93;7.37;;;;;;;14.10;53.37;101255.75;4483303;32;33714;-76
2023/01/04 00:03:50;;;;;;;11.98;6.70;;;;;;;14.03;52.08;101257.94;4484613;31;33843;-75
2023/01/04 00:06:19;;;;;;;13.62;7.53;;;;;;;12.75;56.40;101259.41;4486210;31;34261;-75
2023/01/04 00:08:47;;;;;;;12.70;7.20;;;;;;;11.10;60.11;101271.56;4491297;31;33524;-76
2023/01/04 00:11:20;;;;;;;10.65;5.35;;;;;;;11.57;59.64;101265.97;4483386;32;34010;-75
2023/01/04 00:13:49;;;;;;;10.48;4.78;;;;;;;13.25;53.27;101262.25;4480709;32;33896;-75
2023/01/04 00:16:21;;;;;;;10.50;4.87;;;;;;;12.98;53.80;101265.06;4494638;31;34277;-76
2023/01/04 00:18:50;;;;;;;10.48;4.60;;;;;;;11.81;55.99;101268.34;4484754;31;34569;-75
2023/01/04 00:21:29;;;;;;;11.38;5.32;;;;;;;11.44;57.53;101266.00;4485931;31;33551;-76
2023/01/04 00:23:59;;;;;;;10.93;5.12;;;;;;;11.03;59.02;101261.59;4483490;32;33690;-74
2023/01/04 00:26:29;;;;;;;8.95;5.05;;;;;;;10.66;60.41;101271.19;4486283;31;32801;-76
2023/01/04 00:29:06;;;;;;;11.95;6.45;;;;;;;10.32;61.45;101264.59;4485100;32;33787;-76
2023/01/04 00:31:34;;;;;;;15.43;7.03;;;;;;;10.56;61.53;101264.47;4474523;32;33405;-74
2023/01/04 00:34:04;;;;;;;12.77;7.18;;;;;;;9.41;67.06;101276.25;4485356;32;34028;-76
2023/01/04 00:36:32;;;;;;;15.98;8.40;;;;;;;9.18;67.90;101264.22;4489014;31;34715;-76
2023/01/04 00:39:06;;;;;;;16.80;9.23;;;;;;;9.04;69.45;101262.31;4487300;31;34658;-75
2023/01/04 00:41:35;;;;;;;;;;;;;;;8.37;72.72;101269.28;4485429;32;33731;-76
2023/01/04 00:44:23;;;;;;;15.25;8.85;;;;;;;8.52;70.22;101276.44;4485415;32;34723;-76
2023/01/04 00:46:50;;;;;;;13.95;8.45;;;;;;;8.36;71.40;101272.62;4493533;31;34326;-76
2023/01/04 00:49:18;;;;;;;16.52;7.93;;;;;;;8.62;69.01;101279.84;4485704;31;33736;-75
2023/01/04 00:51:45;;;;;;;16.75;8.32;;;;;;;9.20;68.68;101275.56;4484706;32;33924;-75
2023/01/04 00:54:14;;;;;;;14.55;7.70;;;;;;;7.24;76.18;101282.75;4491112;31;33847;-76
2023/01/04 00:56:43;;;;;;;13.75;7.87;;;;;;;8.68;69.91;101279.41;4488831;31;34050;-75
2023/01/04 00:59:15;;;;;;;13.30;6.87;;;;;;;8.97;68.37;101270.38;4484079;32;33914;-75
2023/01/04 01:01:43;;;;;;;12.93;7.00;;;;;;;8.85;67.87;101271.25;4480298;32;33710;-76
2023/01/04 01:04:14;;;;;;;12.20;6.47;;;;;;;9.67;65.30;101271.16;4475652;31;35530;-76
2023/01/04 01:06:41;;;;;;;14.68;6.90;;;;;;;8.80;69.04;101282.91;4480640;32;32947;-76
2023/01/04 01:09:09;;;;;;;13.68;7.00;;;;;;;10.01;64.48;101277.06;4483527;32;33611;-76
2023/01/04 01:11:38;;;;;;;14.68;7.85;;;;;;;9.03;66.91;101288.94;4484115;32;33651;-76
2023/01/04 01:14:08;;;;;;;13.35;7.30;;;;;;;7.62;73.01;101286.62;4488891;31;33792;-75
2023/01/04 01:16:36;;;;;;;14.68;7.15;;;;;;;7.89;72.51;101287.91;4483804;32;32908;-75
2023/01/04 01:19:21;;;;;;;13.75;7.03;;;;;;;9.22;68.13;101283.44;4483964;32;33548;-75
2023/01/04 01:21:48;;;;;;;13.93;7.28;;;;;;;11.00;61.09;101280.41;4484813;32;33764;-76
2023/01/04 01:24:17;;;;;;;12.95;6.78;;;;;;;12.38;56.00;101275.41;4488161;31;33413;-75
2023/01/04 01:26:45;;;;;;;12.55;6.65;;;;;;;12.42;55.23;101273.87;4483611;32;33917;-76
2023/01/04 01:29:13;;;;;;;12.45;6.35;;;;;;;13.03;52.97;101274.03;4484530;32;34518;-76
2023/01/04 01:31:41;;;;;;;14.27;7.20;;;;;;;12.98;52.88;101272.88;4485072;31;34723;-76
2023/01/04 01:34:09;;;;;;;12.48;6.50;;;;;;;12.61;53.70;101281.06;4489062;31;34343;-76
2023/01/04 01:36:36;;;;;;;12.98;6.60;;;;;;;12.61;53.72;101272.38;4484927;32;33343;-75
2023/01/04 01:39:05;;;;;;;12.70;6.50;;;;;;;12.63;53.60;101268.16;4484349;32;33845;-75
2023/01/04 01:41:33;;;;;;;11.68;5.47;;;;;;;11.92;55.38;101277.75;4485043;31;34800;-75
2023/01/04 01:44:26;;;;;;;12.68;6.82;;;;;;;10.23;61.62;101279.44;4477125;31;34128;-75
2023/01/04 01:46:54;;;;;;;14.27;6.75;;;;;;;11.13;58.25;101257.91;4475463;32;33931;-75
2023/01/04 01:49:29;;;;;;;16.67;6.93;;;;;;;11.29;57.73;101262.41;4483228;32;34374;-75
2023/01/04 01:52:01;;;;;;;14.15;7.20;;;;;;;11.00;58.51;101266.56;4489737;31;34399;-76
2023/01/04 01:54:33;;;;;;;14.52;6.62;;;;;;;11.19;57.85;101259.19;4480361;31;33233;-75
2023/01/04 01:57:03;;;;;;;11.65;6.07;;;;;;;10.88;58.68;101269.25;4470192;32;33596;-76
2023/01/04 01:59:33;;;;;;;14.93;7.30;;;;;;;10.17;61.02;101276.44;4483418;32;33877;-76
2023/01/04 02:02:00;;;;;;;13.18;6.93;;;;;;;10.28;60.97;101275.50;4489627;31;34907;-76
2023/01/04 02:04:29;;;;;;;11.27;7.07;;;;;;;10.14;60.23;101269.38;4490051;31;34185;-75
2023/01/04 02:06:58;;;;;;;13.60;7.20;;;;;;;10.30;60.99;101275.62;4470581;32;33613;-75
2023/01/04 02:09:25;;;;;;;12.40;6.50;;;;;;;10.52;60.27;101272.81;4469507;32;34648;-76
2023/01/04 02:11:53;;;;;;;14.23;7.00;;;;;;;10.06;62.09;101272.19;4489622;31;33945;-74
2023/01/04 02:14:27;;;;;;;13.90;7.03;;;;;;;11.15;58.04;101274.47;4490940;31;34077;-75
2023/01/04 02:17:08;;;;;;;13.20;7.12;;;;;;;10.46;59.70;101277.59;4483705;32;34822;-76
2023/01/04 02:20:03;;;;;;;13.45;6.45;;;;;;;10.14;61.75;101278.78;4482448;32;33721;-75
2023/01/04 02:22:49;;;;;;;14.10;6.25;;;;;;;8.11;67.74;101279.28;4491080;31;34997;-75
2023/01/04 02:25:45;;;;;;;14.68;7.07;;;;;;;9.95;62.87;101272.34;4498282;31;34822;-76
2023/01/04 02:28:25;;;;;;;14.20;7.70;;;;;;;8.19;67.72;101281.69;4485010;31;33478;-76
2023/01/04 02:31:11;;;;;;;13.10;6.85;;;;;;;9.60;62.53;101268.13;4483833;32;33669;-75
2023/01/04 02:34:03;;;;;;;12.40;6.95;;;;;;;10.66;59.38;101264.28;4473310;32;34003;-76
2023/01/04 02:36:58;;;;;;;13.25;6.35;;;;;;;8.59;65.93;101268.38;4477795;32;34074;-76
2023/01/04 02:39:47;;;;;;;13.50;7.22;;;;;;;7.95;68.15;101270.31;4496291;31;33773;-76
2023/01/04 02:42:21;;;;;;;12.20;6.65;;;;;;;7.58;69.96;101262.25;4491599;31;34637;-76
2023/01/04 02:44:54;;;;;;;13.60;6.60;;;;;;;9.64;63.69;101270.16;4486871;31;34669;-76
2023/01/04 02:50:55;;;;;;;12.55;6.28;;;;;;;7.98;68.83;101283.47;4482385;32;34467;-76
2023/01/04 02:53:24;;;;;;;;;;;;;;;8.31;67.22;101280.84;4495943;31;33628;-75
2023/01/04 02:56:18;;;;;;;13.85;6.75;;;;;;;8.02;69.18;101280.38;4483158;32;34973;-75
2023/01/04 02:59:02;;;;;;;13.23;7.03;;;;;;;8.22;68.14;101278.44;4473089;32;33952;-76
2023/01/04 03:07:56;;;;;;;13.82;7.10;;;;;;;7.92;69.25;101276.91;4482837;32;33628;-75
2023/01/04 03:10:50;;;;;;;13.57;6.53;;;;;;;6.82;72.80;101275.84;4482431;31;34261;-76
2023/01/04 03:13:26;;;;;;;13.65;7.57;;;;;;;6.58;74.63;101278.94;4477001;32;33557;-75
2023/01/04 03:16:00;;;;;;;15.23;7.12;;;;;;;6.09;76.09;101280.81;4481409;32;33651;-75
2023/01/04 03:18:30;;;;;;;;;;;;;;;6.00;77.49;101280.00;4473011;32;33777;-76
2023/01/04 03:21:00;;;;;;;13.88;6.85;;;;;;;6.41;75.78;101273.28;4487581;31;34222;-75
2023/01/04 03:35:40;;;;;;;13.05;6.50;;;;;;;5.61;79.41;101279.19;4472971;32;33440;-75
2023/01/04 03:49:46;;;;;;;13.45;6.50;;;;;;;10.26;61.99;101274.50;4472693;32;33703;-75
2023/01/04 03:52:14;;;;;;;15.30;7.35;;;;;;;8.67;64.44;101280.19;4481326;31;33812;-75
2023/01/04 03:54:44;;;;;;;14.48;7.35;;;;;;;7.57;68.47;101278.53;4487102;31;34336;-75
2023/01/04 03:57:13;;;;;;;15.90;8.35;;;;;;;6.87;72.90;101284.84;4471648;31;32863;-75
2023/01/04 03:59:53;;;;;;;15.77;7.70;;;;;;;5.40;78.82;101277.31;4484837;32;33915;-75
2023/01/04 04:02:28;;;;;;;15.52;8.00;;;;;;;5.35;79.96;101278.53;4483319;32;33838;-75
2023/01/04 04:10:29;;;;;;;20.55;8.52;;;;;;;5.11;81.78;101273.91;4484953;32;33638;-75
2023/01/04 04:12:56;;;;;;;15.95;8.27;;;;;;;4.97;82.84;101273.47;4485154;32;33211;-75
2023/01/04 04:15:24;;;;;;;17.30;9.02;;;;;;;6.13;78.91;101266.53;4486599;31;33987;-76
2023/01/04 04:17:51;;;;;;;19.12;9.80;;;;;;;6.92;75.22;101279.19;4484020;32;33747;-75
2023/01/04 04:20:19;;;;;;;16.35;8.50;;;;;;;6.88;73.35;101271.19;4491292;31;33856;-75
2023/01/04 04:22:46;;;;;;;17.40;8.73;;;;;;;7.96;70.73;101274.72;4484285;32;34083;-75
2023/01/04 04:25:14;;;;;;;14.98;7.85;;;;;;;8.20;67.92;101270.56;4490155;31;34449;-75
2023/01/04 04:27:41;;;;;;;15.98;7.85;;;;;;;8.46;66.25;101270.03;4495300;31;33998;-75
2023/01/04 04:30:09;;;;;;;14.40;8.18;;;;;;;6.92;70.65;101281.78;4486842;31;34484;-76
2023/01/04 04:32:37;;;;;;;16.58;8.43;;;;;;;6.38;73.99;101285.88;4477716;31;33908;-75
2023/01/04 04:35:04;;;;;;;18.27;9.20;;;;;;;5.77;78.33;101283.12;4485626;31;34872;-75
2023/01/04 04:37:33;;;;;;;17.80;8.57;;;;;;;6.04;76.09;101288.09;4484998;32;34354;-75
2023/01/04 04:40:01;;;;;;;18.92;9.23;;;;;;;5.30;80.23;101291.88;4484688;32;33838;-74
2023/01/04 04:42:28;;;;;;;18.98;9.68;;;;;;;5.06;80.60;101294.81;4484893;32;34480;-75
2023/01/04 04:44:56;;;;;;;22.02;9.60;;;;;;;4.97;81.19;101287.19;4489499;31;34223;-75
2023/01/04 04:47:23;;;;;;;22.17;11.43;;;;;;;5.79;77.14;101282.47;4472738;32;34378;-75
2023/01/04 04:49:51;;;;;;;24.20;11.77;;;;;;;6.52;74.91;101283.56;4484549;32;33630;-75
2023/01/04 04:52:18;;;;;;;20.92;10.70;;;;;;;6.34;75.02;101283.81;4484984;32;33956;-75
2023/01/04 04:54:46;;;;;;;21.35;10.52;;;;;;;6.18;75.36;101285.81;4488260;31;33668;-75
2023/01/04 04:57:13;;;;;;;15.68;8.43;;;;;;;6.19;75.36;101285.06;4485390;31;34191;-75
2023/01/04 04:59:41;;;;;;;17.17;8.68;;;;;;;5.87;76.66;101272.84;4484264;32;34168;-74
2023/01/04 05:02:09;;;;;;;17.62;8.55;;;;;;;5.37;79.03;101287.28;4485925;31;33799;-74
2023/01/04 05:04:36;;;;;;;16.20;8.02;;;;;;;5.19;79.48;101282.31;4489135;31;35008;-74
2023/01/04 05:07:04;;;;;;;16.65;8.27;;;;;;;5.48;78.82;101276.31;4483434;32;33579;-75
2023/01/04 05:09:38;;;;;;;16.33;8.45;;;;;;;5.02;81.13;101288.53;4485050;31;34609;-75
2023/01/04 05:14:55;;;;;;;18.08;8.00;;;;;;;4.97;82.00;101284.63;4483696;32;34748;-75
2023/01/04 05:17:22;;;;;;;17.58;9.48;;;;;;;5.44;80.17;101284.50;4484775;32;33356;-75
2023/01/04 05:19:50;;;;;;;19.15;8.80;;;;;;;6.03;76.97;101286.31;4496889;31;33877;-75
2023/01/04 05:22:17;;;;;;;17.33;8.45;;;;;;;7.15;72.66;101287.13;4484545;31;33727;-75
2023/01/04 05:24:45;;;;;;;14.65;7.50;;;;;;;9.07;65.83;101270.28;4480034;32;34788;-76
2023/01/04 05:27:12;;;;;;;15.35;8.02;;;;;;;10.01;61.05;101283.12;4483910;32;33568;-76
2023/01/04 05:32:26;;;;;;;14.85;7.60;;;;;;;9.60;62.01;101299.19;4493098;31;34686;-75
2023/01/04 05:34:54;;;;;;;14.25;7.35;;;;;;;8.59;64.11;101301.97;4487723;31;34141;-75
2023/01/04 05:37:21;;;;;;;16.70;7.93;;;;;;;7.40;68.41;101307.19;4484209;32;33230;-75
2023/01/04 05:39:49;;;;;;;16.92;7.72;;;;;;;7.97;67.26;101302.31;4494178;31;34492;-76
2023/01/04 05:42:26;;;;;;;16.12;8.48;;;;;;;7.83;67.07;101308.06;4483627;32;33556;-75
2023/01/04 05:44:56;;;;;;;15.38;8.02;;;;;;;7.37;68.81;101310.41;4483227;32;35062;-76
2023/01/04 05:47:25;;;;;;;15.38;7.60;;;;;;;7.25;69.15;101315.47;4495252;31;34293;-76
2023/01/04 05:49:53;;;;;;;20.30;8.75;;;;;;;6.75;71.09;101317.31;4494258;31;34021;-75
2023/01/04 05:52:20;;;;;;;15.85;8.82;;;;;;;6.52;72.32;101309.31;4483726;32;34528;-76
2023/01/04 05:54:48;;;;;;;16.67;8.55;;;;;;;6.53;72.09;101314.59;4477264;32;33959;-76
2023/01/04 05:57:17;;;;;;;20.80;9.32;;;;;;;6.29;72.50;101305.66;4483414;31;34041;-75
2023/01/04 05:59:44;;;;;;;18.05;8.70;;;;;;;6.72;71.08;101314.47;4482821;32;33978;-76
2023/01/04 06:02:18;;;;;;;19.25;9.48;;;;;;;7.23;69.47;101317.00;4483079;31;34740;-75
2023/01/04 06:04:46;;;;;;;29.53;9.03;;;;;;;8.40;65.53;101304.78;4478802;31;33700;-76
2023/01/04 06:07:21;;;;;;;15.57;8.05;;;;;;;9.58;61.31;101295.59;4484593;32;33503;-76
2023/01/04 06:09:49;;;;;;;15.48;7.47;;;;;;;10.92;55.50;101298.88;4484399;32;34148;-75
2023/01/04 06:12:16;;;;;;;15.05;7.78;;;;;;;11.05;54.11;101291.13;4485044;31;33497;-75
2023/01/04 06:14:44;;;;;;;11.43;6.82;;;;;;;10.78;54.38;101297.94;4475882;31;32599;-75
2023/01/04 06:17:12;;;;;;;13.35;6.93;;;;;;;10.91;53.52;101294.47;4483087;32;34005;-76
2023/01/04 06:19:39;;;;;;;14.02;6.03;;;;;;;10.30;54.43;101304.09;4484276;32;33971;-76
2023/01/04 06:22:09;;;;;;;14.10;6.57;;;;;;;9.50;56.40;101314.81;4484251;31;33631;-75
2023/01/04 06:24:37;;;;;;;13.80;7.18;;;;;;;8.81;57.62;101326.06;4478769;32;34860;-76
2023/01/04 06:27:04;;;;;;;15.60;7.97;;;;;;;7.95;60.11;101337.41;4494699;31;33280;-75
2023/01/04 06:29:32;;;;;;;14.63;7.40;;;;;;;7.47;62.05;101332.69;4483863;32;33668;-76
2023/01/04 06:32:00;;;;;;;13.90;6.78;;;;;;;9.06;57.86;101333.13;4483869;32;33624;-76
2023/01/04 06:34:27;;;;;;;32.20;16.10;;;;;;;10.41;53.10;101327.41;4489380;31;34673;-77
2023/01/04 06:36:58;;;;;;;25.77;13.25;;;;;;;10.31;52.42;101314.56;4490755;31;32908;-76
2023/01/04 06:39:25;;;;;;;20.08;11.68;;;;;;;10.96;50.98;101316.41;4481984;31;34524;-76
2023/01/04 06:41:53;;;;;;;14.27;8.23;;;;;;;12.11;47.69;101317.84;4481517;32;33644;-76
2023/01/04 06:44:28;;;;;;;16.02;6.72;;;;;;;12.20;46.91;101318.41;4484011;32;34189;-76
2023/01/04 06:46:56;;;;;;;12.93;6.07;;;;;;;11.85;47.36;101318.75;4490982;31;33837;-76
2023/01/04 06:49:23;;;;;;;13.40;6.53;;;;;;;12.12;46.50;101317.06;4488328;31;33800;-76
2023/01/04 06:51:51;;;;;;;12.15;5.30;;;;;;;12.06;46.35;101332.25;4491735;31;33769;-76
2023/01/04 06:54:19;;;;;;;13.25;5.60;;;;;;;10.30;49.66;101328.34;4483498;32;33861;-76
2023/01/04 06:56:46;;;;;;;15.55;8.65;;;;;;;9.47;52.73;101322.34;4480548;32;33495;-76
2023/01/04 06:59:14;;;;;;;16.37;9.77;;;;;;;8.79;54.87;101340.56;4481652;32;33122;-76
2023/01/04 07:01:42;;;;;;;19.50;10.80;;;;;;;9.03;54.97;101328.59;4482962;32;33553;-76
2023/01/04 07:04:09;;;;;;;17.15;10.38;;;;;;;10.78;50.68;101331.63;4482427;31;34177;-76
2023/01/04 07:06:37;;;;;;;12.93;7.35;;;;;;;11.26;49.12;101332.22;4482587;32;33427;-76
2023/01/04 07:09:05;;;;;;;13.13;6.28;;;;;;;12.17;46.25;101334.72;4493951;31;34777;-76
2023/01/04 07:11:32;;;;;;;13.20;6.10;;;;;;;11.83;46.28;101336.84;4481261;31;32366;-75
2023/01/04 07:14:00;;;;;;;9.88;5.25;;;;;;;11.59;46.67;101344.84;4484004;31;34205;-76
2023/01/04 07:16:27;;;;;;;13.05;6.05;;;;;;;11.36;47.05;101347.62;4486779;31;33325;-76
2023/01/04 07:18:55;;;;;;;12.35;5.90;;;;;;;8.39;54.30;101355.53;4495208;31;33632;-76
2023/01/04 07:21:24;;;;;;;9.75;5.22;;;;;;;4.99;68.37;101369.50;4486522;31;34883;-77
2023/01/04 07:23:52;;;;;;;14.82;7.03;;;;;;;5.54;67.00;101374.50;4492659;31;34472;-76
2023/01/04 07:26:19;;;;;;;14.52;7.18;;;;;;;4.81;70.62;101374.75;4490818;31;34157;-76
2023/01/04 07:31:34;;;;;;;19.73;9.02;;;;;;;4.93;71.73;101365.59;4481633;31;34022;-77
2023/01/04 07:34:02;;;;;;;20.15;10.60;;;;;;;4.78;73.56;101356.50;4467988;32;32490;-76
2023/01/04 07:36:29;;;;;;;18.77;10.95;;;;;;;4.64;74.80;101354.31;4482187;32;33810;-77
2023/01/04 07:39:00;;;;;;;23.33;12.27;;;;;;;4.87;74.94;101349.66;4482991;31;33791;-77
2023/01/04 07:41:28;;;;;;;24.00;12.10;;;;;;;4.85;76.16;101348.59;4476560;32;33984;-76
2023/01/04 07:43:56;;;;;;;21.62;12.05;;;;;;;4.31;78.43;101348.72;4479274;32;35345;-76
2023/01/04 07:46:23;;;;;;;24.92;12.23;;;;;;;4.67;78.14;101339.19;4476764;32;31969;-75
2023/01/04 07:48:51;;;;;;;21.92;11.82;;;;;;;4.40;79.85;101348.66;4481032;32;33580;-76
2023/01/04 07:51:18;;;;;;;19.95;10.25;;;;;;;4.41;80.38;101340.22;4477155;31;34726;-76
2023/01/04 07:53:46;;;;;;;20.15;10.55;;;;;;;4.77;78.66;101357.25;4493231;31;34075;-76
2023/01/04 07:56:14;;;;;;;15.45;8.35;;;;;;;5.57;75.15;101345.63;4491957;31;33654;-76
2023/01/04 07:58:45;;;;;;;14.55;7.57;;;;;;;5.76;73.17;101353.31;4486096;31;33961;-76
2023/01/04 08:01:15;;;;;;;13.82;7.35;;;;;;;5.67;75.00;101351.72;4471435;32;34413;-76
2023/01/04 08:03:44;;;;;;;15.20;7.90;;;;;;;5.61;72.22;101346.03;4479071;31;33619;-76
2023/01/04 08:06:14;;;;;;;16.42;8.23;;;;;;;4.61;77.84;101360.03;4479746;32;34362;-76
2023/01/04 08:08:42;;;;;;;18.17;8.27;;;;;;;5.37;76.76;101360.16;4477538;31;33659;-76
2023/01/04 08:11:13;;;;;;;17.42;8.32;;;;;;;5.40;75.94;101360.41;4478010;31;33923;-76
2023/01/04 08:13:41;;;;;;;14.32;7.87;;;;;;;6.02;72.37;101355.63;4483152;31;34548;-75
2023/01/04 08:16:33;;;;;;;15.98;8.70;;;;;;;7.63;67.41;101343.47;4488259;31;34365;-76
2023/01/04 08:19:22;;;;;;;17.55;8.27;;;;;;;6.85;70.92;101348.19;4485502;31;34509;-76
2023/01/04 08:21:49;;;;;;;15.23;7.87;;;;;;;8.10;65.89;101334.28;4494654;31;34587;-76
2023/01/04 08:24:18;;;;;;;14.90;8.00;;;;;;;7.42;68.07;101334.00;4487218;31;34690;-75
2023/01/04 08:26:46;;;;;;;16.92;9.60;;;;;;;6.36;72.75;101336.31;4483016;31;33154;-75
2023/01/04 08:29:14;;;;;;;18.27;9.20;;;;;;;6.41;73.72;101335.06;4485778;31;34741;-75
2023/01/04 08:31:41;;;;;;;17.35;8.82;;;;;;;5.90;75.98;101324.56;4471091;31;34817;-75
2023/01/04 08:34:09;;;;;;;18.17;9.77;;;;;;;6.44;74.79;101327.56;4481184;32;34661;-75
2023/01/04 08:36:49;;;;;;;19.35;9.80;;;;;;;5.83;77.77;101342.78;4487006;31;33337;-76
2023/01/04 08:39:16;;;;;;;20.55;10.60;;;;;;;7.25;73.85;101336.06;4471397;31;34255;-76
2023/01/04 08:41:51;;;;;;;16.62;9.63;;;;;;;6.54;74.54;101323.22;4488233;31;35230;-76
2023/01/04 08:44:38;;;;;;;19.45;10.10;;;;;;;9.48;64.04;101329.31;4485244;32;34927;-76
2023/01/04 08:47:07;;;;;;;20.75;10.07;;;;;;;9.72;63.07;101327.63;4491215;31;33319;-76
2023/01/04 08:49:35;;;;;;;16.33;10.00;;;;;;;9.85;62.33;101326.84;4484801;32;33916;-76
2023/01/04 08:52:03;;;;;;;23.05;10.85;;;;;;;9.44;63.43;101312.69;4484826;32;33927;-76
2023/01/04 08:54:31;;;;;;;23.87;11.77;;;;;;;6.83;73.26;101329.16;4487211;31;34044;-75
2023/01/04 08:56:59;;;;;;;21.60;11.90;;;;;;;7.00;75.73;101334.81;4491080;31;34394;-76
2023/01/04 08:59:26;;;;;;;22.75;12.45;;;;;;;6.65;77.49;101337.91;4484274;32;33512;-75
2023/01/04 09:01:54;;;;;;;23.50;12.93;;;;;;;6.92;77.26;101339.34;4484940;32;34584;-76
2023/01/04 09:04:30;;;;;;;24.35;12.98;;;;;;;8.76;70.97;101337.72;4487430;31;34166;-76
2023/01/04 09:06:58;;;;;;;22.77;12.82;;;;;;;8.50;71.41;101342.56;4487278;31;34489;-76
2023/01/04 09:09:28;;;;;;;22.95;12.37;;;;;;;8.51;71.51;101334.06;4483934;32;33414;-75
2023/01/04 09:11:58;;;;;;;19.42;11.50;;;;;;;8.60;70.92;101329.59;4484817;32;33048;-76
2023/01/04 09:14:26;;;;;;;23.65;11.98;;;;;;;9.14;69.45;101325.94;4488871;31;33679;-76
2023/01/04 09:16:54;;;;;;;22.37;12.77;;;;;;;9.51;67.81;101328.66;4483615;32;33556;-77
2023/01/04 09:19:22;;;;;;;22.15;11.80;;;;;;;9.05;69.68;101334.78;4489122;31;33468;-76
2023/01/04 09:21:50;;;;;;;25.37;12.30;;;;;;;8.06;73.20;101334.00;4484335;32;34678;-76
2023/01/04 09:24:18;;;;;;;23.52;11.10;;;;;;;8.11;73.78;101329.19;4481338;31;34824;-76
2023/01/04 09:26:46;;;;;;;24.20;12.50;;;;;;;8.28;72.68;101333.13;4479235;31;33366;-76
2023/01/04 09:29:14;;;;;;;20.52;11.60;;;;;;;8.28;73.35;101320.22;4488267;31;33554;-75
2023/01/04 09:31:41;;;;;;;22.67;12.13;;;;;;;8.45;73.96;101322.47;4494312;31;33546;-75
2023/01/04 09:34:10;;;;;;;21.42;11.80;;;;;;;10.67;64.74;101304.09;4486806;31;34079;-75
2023/01/04 09:36:44;;;;;;;20.42;11.10;;;;;;;8.94;69.53;101319.25;4483095;31;33757;-75
2023/01/04 09:39:13;;;;;;;21.42;11.32;;;;;;;11.45;60.53;101304.09;4489034;31;33212;-74
2023/01/04 09:41:57;;;;;;;18.83;10.60;;;;;;;11.67;58.67;101308.09;4483773;31;33608;-75
2023/01/04 09:44:55;;;;;;;16.92;9.88;;;;;;;11.37;58.37;101297.50;4485218;31;34150;-74
2023/01/04 09:48:13;;;;;;;19.92;11.77;;;;;;;10.70;59.12;101300.00;4469601;32;33664;-75
2023/01/04 09:50:49;;;;;;;16.42;9.98;;;;;;;9.15;64.54;101292.41;4477890;32;33982;-74
2023/01/04 09:53:44;;;;;;;17.65;9.65;;;;;;;9.48;64.79;101298.28;4483735;31;33156;-75
2023/01/04 09:56:16;;;;;;;;;;;;;;;7.21;72.63;101300.53;4489866;31;34657;-75
2023/01/04 09:58:44;;;;;;;15.82;9.95;;;;;;;8.54;67.45;101300.72;4483926;32;33644;-74
2023/01/04 10:01:22;;;;;;;15.68;9.90;;;;;;;8.35;70.26;101299.25;4482558;32;33634;-75
2023/01/04 10:04:01;;;;;;;16.75;9.38;;;;;;;9.01;65.09;101293.09;4476666;31;34792;-75
2023/01/04 10:06:28;;;;;;;15.98;9.18;;;;;;;10.37;61.44;101294.31;4479515;31;34110;-74
2023/01/04 10:09:01;;;;;;;15.20;8.40;;;;;;;9.86;61.77;101282.03;4466386;32;34000;-75
2023/01/04 10:11:50;;;;;;;16.45;8.95;;;;;;;9.58;64.47;101281.72;4470024;32;33709;-75
2023/01/04 10:14:39;;;;;;;17.45;9.68;;;;;;;10.17;62.50;101276.44;4490698;31;33856;-75
2023/01/04 10:17:39;;;;;;;16.35;8.95;;;;;;;10.59;61.53;101269.88;4485326;31;34267;-75
2023/01/04 10:20:58;;;;;;;17.67;9.52;;;;;;;7.98;69.49;101282.59;4478255;31;33398;-75
2023/01/04 10:24:05;;;;;;;15.23;8.80;;;;;;;9.67;63.65;101271.16;4475233;31;33357;-75
2023/01/04 10:26:35;;;;;;;19.17;10.15;;;;;;;9.54;63.66;101271.94;4481575;31;34596;-75
2023/01/04 10:29:28;;;;;;;23.00;12.10;;;;;;;9.92;62.99;101264.34;4491615;31;34511;-75
2023/01/04 10:32:00;;;;;;;19.10;10.65;;;;;;;10.04;61.48;101260.06;4485308;31;34937;-75
2023/01/04 10:34:37;;;;;;;17.85;9.65;;;;;;;9.99;62.13;101264.00;4495204;31;33835;-76
2023/01/04 10:37:34;;;;;;;16.98;9.48;;;;;;;8.35;66.93;101270.84;4489538;31;33911;-75
2023/01/04 10:40:12;;;;;;;16.42;8.88;;;;;;;7.68;72.12;101272.50;4471673;31;33975;-76
2023/01/04 10:42:50;;;;;;;14.57;8.50;;;;;;;8.77;68.36;101262.03;4487822;31;34469;-76
2023/01/04 10:45:26;;;;;;;19.05;9.20;;;;;;;8.56;67.11;101257.84;4485966;31;34653;-76
2023/01/04 10:48:09;;;;;;;17.75;9.63;;;;;;;9.50;64.90;101255.31;4487931;31;34799;-76
2023/01/04 10:50:42;;;;;;;16.92;9.30;;;;;;;10.51;62.69;101246.03;4494240;31;34487;-76
2023/01/04 10:53:16;;;;;;;14.27;8.43;;;;;;;11.00;60.32;101240.63;4492362;31;33602;-74
2023/01/04 10:55:50;;;;;;;17.75;9.68;;;;;;;10.13;64.19;101245.94;4492755;31;34639;-74
2023/01/04 10:58:45;;;;;;;17.17;9.52;;;;;;;11.51;59.36;101233.53;4493834;31;33914;-75
2023/01/04 11:01:24;;;;;;;16.48;9.90;;;;;;;11.09;60.55;101223.09;4487037;31;34181;-75
2023/01/04 11:04:07;;;;;;;21.48;12.77;;;;;;;12.75;55.38;101206.53;4479525;31;33390;-76
2023/01/04 11:06:43;;;;;;;15.55;9.23;;;;;;;12.82;55.87;101212.97;4475739;32;34612;-75
2023/01/04 11:09:16;;;;;;;17.15;9.23;;;;;;;10.41;62.87;101212.50;4486113;31;33299;-75
2023/01/04 11:11:54;;;;;;;20.00;11.00;;;;;;;10.09;64.86;101212.87;4473661;32;34121;-76
2023/01/04 11:14:24;;;;;;;17.92;9.27;;;;;;;11.72;60.78;101201.16;4478794;32;34105;-76
2023/01/04 11:16:55;;;;;;;20.23;11.00;;;;;;;11.97;60.64;101195.81;4481534;32;33977;-76
2023/01/04 11:19:23;;;;;;;19.23;10.15;;;;;;;12.51;57.99;101186.06;4470046;32;33931;-76
2023/01/04 11:22:00;;;;;;;14.63;8.90;;;;;;;13.11;56.80;101181.69;4480181;31;34775;-76
2023/01/04 11:24:30;;;;;;;13.62;7.97;;;;;;;13.14;56.54;101176.69;4475843;32;33481;-77
2023/01/04 11:27:13;;;;;;;13.30;7.18;;;;;;;12.87;56.29;101169.94;4481013;32;33765;-75
2023/01/04 11:29:51;;;;;;;13.48;7.50;;;;;;;11.72;57.98;101171.72;4480209;31;35257;-75
2023/01/04 11:32:34;;;;;;;14.57;7.80;;;;;;;11.57;59.13;101166.44;4466182;31;33773;-75
2023/01/04 11:35:02;;;;;;;17.00;7.32;;;;;;;11.13;61.21;101151.59;4487029;31;33927;-76
2023/01/04 11:37:32;;;;;;;12.50;7.50;;;;;;;10.99;59.89;101148.06;4494779;31;33897;-76
2023/01/04 11:40:15;;;;;;;11.95;7.28;;;;;;;12.52;57.05;101141.06;4486743;31;33900;-75
2023/01/04 11:42:48;;;;;;;10.93;6.18;;;;;;;12.82;55.20;101145.34;4485315;31;33967;-75
2023/01/04 11:45:25;;;;;;;13.62;6.25;;;;;;;12.90;55.76;101142.41;4488440;31;33878;-76
2023/01/04 11:47:56;;;;;;;10.98;6.32;;;;;;;11.75;58.04;101148.53;4491063;31;33651;-75
2023/01/04 11:50:36;;;;;;;10.57;5.60;;;;;;;13.26;54.64;101145.25;4489884;31;34006;-75
2023/01/04 11:53:22;;;;;;;12.23;6.37;;;;;;;12.91;53.96;101138.09;4490363;31;34142;-76
2023/01/04 11:55:50;;;;;;;9.52;5.10;;;;;;;14.40;50.58;101124.34;4484207;32;33368;-76
2023/01/04 11:58:19;;;;;;;10.38;4.32;;;;;;;14.79;47.57;101124.56;4492856;31;33613;-76
2023/01/04 12:00:52;;;;;;;9.35;5.90;;;;;;;14.32;49.31;101124.84;4496818;31;33844;-75
2023/01/04 12:03:26;;;;;;;10.82;5.20;;;;;;;16.26;44.98;101120.00;4491779;31;33172;-75
2023/01/04 12:05:54;;;;;;;7.20;4.18;;;;;;;15.86;45.58;101123.50;4484480;32;34387;-75
2023/01/04 12:08:29;;;;;;;7.00;3.22;;;;;;;16.37;43.20;101113.50;4492469;31;33410;-75
2023/01/04 12:10:59;;;;;;;7.03;3.45;;;;;;;16.55;42.59;101113.38;4489707;31;34517;-76
2023/01/04 12:13:27;;;;;;;6.70;2.67;;;;;;;14.99;45.33;101123.84;4479533;32;34528;-75
2023/01/04 12:16:19;;;;;;;5.87;3.03;;;;;;;15.63;44.32;101112.00;4475095;32;33651;-75
2023/01/04 12:18:46;;;;;;;12.45;4.62;;;;;;;15.81;43.77;101112.84;4487978;31;33592;-78
2023/01/04 12:21:25;;;;;;;14.30;6.97;;;;;;;16.01;44.98;101104.97;4480160;31;33930;-77
2023/01/04 12:23:53;;;;;;;11.80;6.28;;;;;;;15.99;45.20;101098.78;4466358;32;33737;-77
2023/01/04 12:26:24;;;;;;;13.55;7.03;;;;;;;14.54;49.25;101102.47;4460115;32;32043;-77
2023/01/04 12:29:23;;;;;;;12.68;7.12;;;;;;;13.52;53.14;101092.06;4467969;32;33284;-77
2023/01/04 12:31:59;;;;;;;13.85;7.30;;;;;;;12.59;55.55;101095.53;4482292;31;34599;-78
2023/01/04 12:34:27;;;;;;;9.43;5.82;;;;;;;13.22;53.58;101095.56;4489056;31;34673;-78